Time;durP1;ratioP1;P1;durP2;ratioP2;P2;SDS_P1;SDS_P2;PMS_P1;PMS_P2;Temp;Humidity;BMP_temperature;BMP_pressure;BME280_temperature;BME280_humidity;BME280_pressure;Samples;Min_cycle;Max_cycle;Signal;HPM_P1;HPM_P2
2022/03/21 00:00:33;;;;;;;11.90;8.00;;;7.50;99.90;;;;;;469479;253;29256;-71
2022/03/21 00:02:34;;;;;;;11.40;7.83;;;7.50;99.90;;;;;;469459;248;27455;-73
2022/03/21 00:04:35;;;;;;;11.17;8.03;;;7.60;99.90;;;;;;469489;253;27716;-73
2022/03/21 00:06:37;;;;;;;10.13;6.90;;;7.50;99.90;;;;;;469481;253;27806;-70
2022/03/21 00:08:43;;;;;;;8.20;6.60;;;7.40;99.90;;;;;;469441;253;27900;-73
2022/03/21 00:10:43;;;;;;;9.80;7.17;;;7.40;99.90;;;;;;469381;253;27864;-72
2022/03/21 00:12:45;;;;;;;9.90;7.20;;;7.40;99.90;;;;;;469456;253;27872;-74
2022/03/21 00:14:45;;;;;;;8.65;6.90;;;7.30;99.90;;;;;;469424;253;27523;-71
2022/03/21 00:16:51;;;;;;;10.70;6.60;;;7.30;99.90;;;;;;469442;253;27870;-73
2022/03/21 00:18:52;;;;;;;8.20;6.50;;;7.20;99.90;;;;;;469543;253;27662;-71
2022/03/21 00:20:53;;;;;;;9.43;6.43;;;7.20;99.90;;;;;;469439;253;27855;-72
2022/03/21 00:22:54;;;;;;;8.40;6.80;;;7.10;99.90;;;;;;469482;253;27854;-72
2022/03/21 00:24:55;;;;;;;7.03;5.40;;;7.10;99.90;;;;;;469464;253;28254;-71
2022/03/21 00:26:58;;;;;;;8.80;6.10;;;7.10;99.90;;;;;;469465;253;27741;-71
2022/03/21 00:28:59;;;;;;;7.07;5.83;;;7.10;99.90;;;;;;469488;253;28662;-73
2022/03/21 00:31:01;;;;;;;6.33;5.50;;;7.00;99.90;;;;;;469479;253;27730;-76
2022/03/21 00:33:01;;;;;;;7.87;5.97;;;7.00;99.90;;;;;;469482;253;27806;-73
2022/03/21 00:35:06;;;;;;;8.23;6.60;;;6.90;99.90;;;;;;469490;253;28314;-73
2022/03/21 00:37:07;;;;;;;9.03;6.57;;;6.90;99.90;;;;;;469465;253;27403;-73
2022/03/21 00:39:08;;;;;;;7.30;5.40;;;6.80;99.90;;;;;;469473;253;28025;-74
2022/03/21 00:41:10;;;;;;;7.07;5.73;;;6.80;99.90;;;;;;469461;253;28384;-73
2022/03/21 00:43:12;;;;;;;7.37;5.95;;;6.80;99.90;;;;;;469488;253;27420;-74
2022/03/21 00:47:19;;;;;;;9.07;6.63;;;6.80;99.90;;;;;;497755;236;29291;-75
2022/03/21 00:49:20;;;;;;;6.78;5.72;;;6.70;99.90;;;;;;498247;239;28673;-73
2022/03/21 00:51:21;;;;;;;6.37;5.43;;;6.60;99.90;;;;;;498223;239;27392;-73
2022/03/21 00:53:23;;;;;;;8.15;6.25;;;6.50;99.90;;;;;;498240;239;28736;-73
2022/03/21 00:55:28;;;;;;;7.62;5.62;;;6.50;99.90;;;;;;497231;239;27465;-73
2022/03/21 00:57:25;;;;;;;6.90;5.60;;;6.40;99.90;;;;;;496975;239;27901;-74
2022/03/21 00:59:26;;;;;;;7.80;6.07;;;6.30;99.90;;;;;;497164;239;29449;-73
2022/03/21 01:01:28;;;;;;;7.18;5.65;;;6.20;99.90;;;;;;497192;239;28073;-74
2022/03/21 01:03:31;;;;;;;7.50;6.05;;;6.20;99.90;;;;;;497199;239;27456;-73
2022/03/21 01:05:32;;;;;;;7.30;5.93;;;6.10;99.90;;;;;;497220;239;27475;-73
2022/03/21 01:07:33;;;;;;;7.20;5.50;;;6.10;99.90;;;;;;497195;239;28039;-73
2022/03/21 01:09:35;;;;;;;9.23;6.15;;;6.00;99.90;;;;;;497198;239;28080;-71
2022/03/21 01:11:36;;;;;;;7.00;5.37;;;6.00;99.90;;;;;;497184;239;27473;-71
2022/03/21 01:13:41;;;;;;;8.45;5.97;;;6.00;99.90;;;;;;497170;239;27860;-74
2022/03/21 01:15:38;;;;;;;6.40;5.57;;;5.90;99.90;;;;;;496933;239;27461;-70
2022/03/21 01:17:40;;;;;;;7.05;6.35;;;5.90;99.90;;;;;;497177;239;28040;-71
2022/03/21 01:19:41;;;;;;;7.20;5.60;;;5.80;99.90;;;;;;497173;239;27899;-73
2022/03/21 01:21:42;;;;;;;8.07;6.10;;;5.90;99.90;;;;;;497170;239;27469;-73
2022/03/21 01:23:44;;;;;;;8.32;6.00;;;5.80;99.90;;;;;;497183;239;27611;-73
2022/03/21 01:25:45;;;;;;;6.55;5.57;;;5.80;99.90;;;;;;497175;239;27452;-73
2022/03/21 01:27:46;;;;;;;8.35;6.25;;;5.80;99.90;;;;;;497164;239;27492;-73
2022/03/21 01:29:47;;;;;;;10.50;6.60;;;5.70;99.90;;;;;;497144;239;27474;-73
2022/03/21 01:31:49;;;;;;;9.45;6.68;;;5.70;99.90;;;;;;497200;239;27483;-73
2022/03/21 01:33:50;;;;;;;9.85;7.00;;;5.60;99.90;;;;;;497202;239;27944;-74
2022/03/21 01:35:57;;;;;;;9.20;6.75;;;5.60;99.90;;;;;;497144;239;27980;-73
2022/03/21 01:37:59;;;;;;;10.02;7.20;;;5.50;99.90;;;;;;497183;239;27622;-72
2022/03/21 01:40:00;;;;;;;8.32;6.20;;;5.50;99.90;;;;;;497173;239;28017;-73
2022/03/21 01:42:01;;;;;;;8.10;6.65;;;5.40;99.90;;;;;;497184;239;28030;-72
2022/03/21 01:44:02;;;;;;;8.18;6.43;;;5.40;99.90;;;;;;497187;239;27482;-73
2022/03/21 01:46:04;;;;;;;8.55;6.60;;;5.40;99.90;;;;;;497143;239;27441;-73
2022/03/21 01:48:05;;;;;;;7.75;6.07;;;5.40;99.90;;;;;;497198;239;27486;-73
2022/03/21 01:50:06;;;;;;;6.85;5.85;;;5.30;99.90;;;;;;497173;239;27498;-73
2022/03/21 01:52:07;;;;;;;8.68;6.35;;;5.30;99.90;;;;;;497201;239;27995;-73
2022/03/21 01:56:28;;;;;;;7.78;6.47;;;5.30;99.90;;;;;;497201;239;27522;-73
2022/03/21 01:58:30;;;;;;;8.93;6.47;;;5.30;99.90;;;;;;497172;239;27472;-72
2022/03/21 02:00:31;;;;;;;9.88;6.90;;;5.20;99.90;;;;;;497203;239;27495;-73
2022/03/21 02:02:33;;;;;;;10.93;7.00;;;5.10;99.90;;;;;;497174;239;27450;-73
2022/03/21 02:04:42;;;;;;;9.35;5.97;;;5.10;99.90;;;;;;497153;239;27468;-73
2022/03/21 02:06:42;;;;;;;9.43;6.45;;;5.10;99.90;;;;;;497107;239;27457;-73
2022/03/21 02:08:47;;;;;;;8.88;6.37;;;5.10;99.90;;;;;;497069;239;27917;-73
2022/03/21 02:10:50;;;;;;;9.18;6.60;;;5.20;99.90;;;;;;497183;239;27535;-73
2022/03/21 02:12:51;;;;;;;7.85;6.15;;;5.30;99.90;;;;;;497030;239;27465;-73
2022/03/21 02:14:52;;;;;;;7.90;6.60;;;5.30;99.90;;;;;;497176;239;27543;-73
2022/03/21 02:16:53;;;;;;;9.73;6.72;;;5.10;99.90;;;;;;497143;239;27500;-73
2022/03/21 02:18:54;;;;;;;8.55;6.90;;;5.00;99.90;;;;;;497116;239;28001;-73
2022/03/21 02:20:56;;;;;;;8.27;6.37;;;5.10;99.90;;;;;;497105;239;28002;-72
2022/03/21 02:22:57;;;;;;;7.35;5.80;;;5.10;99.90;;;;;;497214;239;27972;-73
2022/03/21 02:24:58;;;;;;;9.32;6.53;;;5.10;99.90;;;;;;497197;239;27978;-73
2022/03/21 02:26:59;;;;;;;7.12;6.18;;;5.00;99.90;;;;;;497168;239;27561;-73
2022/03/21 02:29:01;;;;;;;7.72;6.05;;;5.00;99.90;;;;;;497160;239;27468;-72
2022/03/21 02:31:02;;;;;;;8.75;6.15;;;5.00;99.90;;;;;;497149;239;27485;-73
2022/03/21 02:33:03;;;;;;;8.73;6.57;;;5.00;99.90;;;;;;497180;239;27945;-72
2022/03/21 02:35:04;;;;;;;7.30;6.22;;;5.00;99.90;;;;;;497188;239;28021;-73
2022/03/21 02:37:06;;;;;;;8.35;6.18;;;5.00;99.90;;;;;;497174;239;27512;-74
2022/03/21 02:39:07;;;;;;;8.52;6.28;;;4.90;99.90;;;;;;497188;239;27520;-72
2022/03/21 02:41:08;;;;;;;9.52;5.90;;;4.90;99.90;;;;;;497175;239;27896;-73
2022/03/21 02:43:16;;;;;;;8.43;7.28;;;4.80;99.90;;;;;;497215;239;28078;-73
2022/03/21 02:45:17;;;;;;;10.93;6.60;;;4.90;99.90;;;;;;497189;239;27499;-73
2022/03/21 02:47:18;;;;;;;8.57;6.75;;;5.00;99.90;;;;;;497136;239;27951;-74
2022/03/21 02:49:19;;;;;;;9.00;6.80;;;5.10;99.90;;;;;;497176;239;27971;-74
2022/03/21 02:51:21;;;;;;;9.40;6.70;;;5.20;99.90;;;;;;497184;239;27895;-73
2022/03/21 02:53:22;;;;;;;9.00;6.70;;;5.20;99.90;;;;;;497161;239;27491;-74
2022/03/21 02:55:24;;;;;;;9.32;6.68;;;5.20;99.90;;;;;;497155;239;27445;-73
2022/03/21 02:57:28;;;;;;;10.95;6.97;;;5.10;99.90;;;;;;497165;239;27517;-72
2022/03/21 02:59:28;;;;;;;8.98;7.05;;;5.10;99.90;;;;;;496970;239;27932;-72
2022/03/21 03:01:29;;;;;;;10.35;7.18;;;5.00;99.90;;;;;;497175;239;27464;-73
2022/03/21 03:03:31;;;;;;;13.73;8.65;;;4.90;99.90;;;;;;497136;239;28078;-70
2022/03/21 03:05:33;;;;;;;11.20;7.37;;;4.90;99.90;;;;;;497178;239;27475;-70
2022/03/21 03:07:35;;;;;;;12.57;7.87;;;4.80;99.90;;;;;;497203;239;27907;-71
2022/03/21 03:09:35;;;;;;;10.30;7.75;;;4.80;99.90;;;;;;497204;239;27916;-70
2022/03/21 03:11:39;;;;;;;9.15;7.30;;;4.80;99.90;;;;;;497194;239;27493;-73
2022/03/21 03:13:41;;;;;;;11.10;7.12;;;4.80;99.90;;;;;;497176;239;27558;-71
2022/03/21 03:15:43;;;;;;;12.02;7.00;;;4.80;99.90;;;;;;497174;239;27874;-70
2022/03/21 03:17:44;;;;;;;11.00;7.60;;;4.80;99.90;;;;;;497180;239;27504;-72
2022/03/21 03:21:58;;;;;;;10.45;7.03;;;4.80;99.90;;;;;;497183;239;27453;-71
2022/03/21 03:23:59;;;;;;;10.10;7.50;;;4.80;99.90;;;;;;497176;239;28016;-71
2022/03/21 03:26:01;;;;;;;12.85;7.00;;;4.70;99.90;;;;;;497149;239;27989;-72
2022/03/21 03:28:02;;;;;;;12.50;8.27;;;4.80;99.90;;;;;;497181;239;27457;-70
2022/03/21 03:30:04;;;;;;;10.25;7.12;;;4.80;99.90;;;;;;497182;239;27563;-70
2022/03/21 03:32:05;;;;;;;10.20;7.28;;;4.80;99.90;;;;;;497203;239;27487;-71
2022/03/21 03:34:07;;;;;;;10.93;7.50;;;4.90;99.90;;;;;;497188;239;28648;-71
2022/03/21 03:36:08;;;;;;;10.98;6.82;;;4.90;99.90;;;;;;497197;239;28070;-71
2022/03/21 03:38:09;;;;;;;9.30;6.80;;;4.90;99.90;;;;;;497187;239;27556;-70
2022/03/21 03:40:10;;;;;;;8.05;6.60;;;4.90;99.90;;;;;;497186;239;27466;-70
2022/03/21 03:42:12;;;;;;;8.65;7.03;;;4.80;99.90;;;;;;497178;239;27604;-70
2022/03/21 03:44:14;;;;;;;7.47;6.20;;;4.70;99.90;;;;;;497212;238;27471;-71
2022/03/21 03:46:15;;;;;;;10.35;6.40;;;4.70;99.90;;;;;;497152;239;27918;-71
2022/03/21 03:48:15;;;;;;;10.02;6.87;;;4.70;99.90;;;;;;497176;239;27982;-71
2022/03/21 03:50:17;;;;;;;8.95;6.62;;;4.70;99.90;;;;;;497225;239;27529;-70
2022/03/21 03:52:18;;;;;;;9.20;6.62;;;4.70;99.90;;;;;;497196;239;27636;-72
2022/03/21 03:54:25;;;;;;;9.40;6.37;;;4.60;99.90;;;;;;497224;239;27461;-71
2022/03/21 03:56:27;;;;;;;7.57;5.35;;;4.60;99.90;;;;;;497217;239;27503;-71
2022/03/21 03:58:28;;;;;;;9.82;7.68;;;4.60;99.90;;;;;;497184;239;27512;-73
2022/03/21 04:00:29;;;;;;;7.95;6.30;;;4.60;99.90;;;;;;497151;239;27445;-71
2022/03/21 04:03:44;;;;;;;10.13;7.22;;;4.60;99.90;;;;;;496596;239;27509;-71
2022/03/21 04:04:32;;;;;;;8.77;6.93;;;4.60;99.90;;;;;;495076;239;27488;-71
2022/03/21 04:06:33;;;;;;;8.20;6.47;;;4.60;99.90;;;;;;496917;239;27949;-71
2022/03/21 04:08:34;;;;;;;9.75;6.80;;;4.70;99.90;;;;;;497141;239;27963;-71
2022/03/21 04:10:35;;;;;;;9.27;7.45;;;4.80;99.90;;;;;;497150;239;27924;-71
2022/03/21 04:12:38;;;;;;;13.10;8.25;;;5.20;99.90;;;;;;497160;239;27480;-71
2022/03/21 04:14:39;;;;;;;9.90;7.75;;;5.40;99.90;;;;;;497196;239;27484;-71
2022/03/21 04:16:46;;;;;;;9.63;7.28;;;5.50;99.90;;;;;;497188;239;27508;-71
2022/03/21 04:18:48;;;;;;;9.30;6.75;;;5.20;99.90;;;;;;497222;239;27493;-71
2022/03/21 04:20:50;;;;;;;10.38;7.12;;;5.10;99.90;;;;;;497175;239;27485;-71
2022/03/21 04:22:51;;;;;;;10.40;7.87;;;5.10;99.90;;;;;;497144;239;27477;-71
2022/03/21 04:24:52;;;;;;;10.02;6.85;;;5.00;99.90;;;;;;497142;239;28025;-71
2022/03/21 04:26:53;;;;;;;10.27;7.87;;;5.00;99.90;;;;;;497187;239;28021;-71
2022/03/21 04:28:59;;;;;;;10.20;7.10;;;5.30;99.90;;;;;;497196;239;27477;-72
2022/03/21 04:30:58;;;;;;;7.12;6.05;;;5.40;99.90;;;;;;496956;239;27564;-71
2022/03/21 04:32:59;;;;;;;8.23;6.35;;;5.20;99.90;;;;;;497157;239;27543;-70
2022/03/21 04:35:04;;;;;;;9.45;6.25;;;5.20;99.90;;;;;;497197;239;27437;-70
2022/03/21 04:37:05;;;;;;;10.40;5.80;;;5.10;99.90;;;;;;497201;239;27477;-70
2022/03/21 04:39:06;;;;;;;7.37;5.80;;;5.20;99.90;;;;;;497092;239;27520;-71
2022/03/21 04:41:07;;;;;;;6.30;5.62;;;5.10;99.90;;;;;;497187;239;28028;-72
2022/03/21 04:43:08;;;;;;;7.05;5.22;;;5.00;99.90;;;;;;497205;239;27907;-72
2022/03/21 04:45:10;;;;;;;6.80;5.55;;;5.00;99.90;;;;;;497177;239;27446;-71
2022/03/21 04:47:11;;;;;;;6.80;5.28;;;5.00;99.90;;;;;;497204;239;27481;-72
2022/03/21 04:49:12;;;;;;;6.57;5.28;;;4.90;99.90;;;;;;497190;239;27492;-72
2022/03/21 04:51:14;;;;;;;5.32;4.60;;;4.80;99.90;;;;;;497179;239;27491;-72
2022/03/21 04:53:17;;;;;;;6.53;5.55;;;4.80;99.90;;;;;;497189;239;28769;-71
2022/03/21 04:55:18;;;;;;;6.25;5.50;;;4.70;99.90;;;;;;497202;239;27592;-72
2022/03/21 04:57:19;;;;;;;5.97;5.20;;;4.70;99.90;;;;;;497219;239;27507;-71
2022/03/21 04:59:22;;;;;;;6.55;4.90;;;4.70;99.90;;;;;;497208;239;27885;-71
2022/03/21 05:01:23;;;;;;;6.35;4.85;;;4.70;99.90;;;;;;497181;239;27461;-72
2022/03/21 05:03:25;;;;;;;7.28;5.30;;;4.80;99.90;;;;;;497174;239;27470;-72
2022/03/21 05:05:25;;;;;;;5.35;4.75;;;4.80;99.90;;;;;;497198;238;27992;-71
2022/03/21 05:07:27;;;;;;;6.05;5.10;;;4.80;99.90;;;;;;497217;239;27999;-71
2022/03/21 05:09:28;;;;;;;8.18;5.32;;;4.70;99.90;;;;;;497191;239;27964;-71
2022/03/21 05:11:29;;;;;;;10.00;5.93;;;4.70;99.90;;;;;;497187;239;27457;-72
2022/03/21 05:13:30;;;;;;;7.05;5.47;;;4.80;99.90;;;;;;497193;239;27556;-71
2022/03/21 05:15:32;;;;;;;8.60;5.60;;;4.80;99.90;;;;;;497206;239;27557;-72
2022/03/21 05:17:33;;;;;;;7.20;5.65;;;4.80;99.90;;;;;;497207;239;27445;-71
2022/03/21 05:19:37;;;;;;;5.75;4.75;;;4.80;99.90;;;;;;497198;239;27982;-72
2022/03/21 05:21:35;;;;;;;6.70;5.50;;;4.70;99.90;;;;;;496991;239;27960;-71
2022/03/21 05:37:34;;;;;;;5.32;4.82;;;4.50;99.90;;;;;;497167;238;27952;-71
2022/03/21 05:40:31;;;;;;;5.25;4.40;;;4.50;99.90;;;;;;497180;239;27979;-71
2022/03/21 05:41:36;;;;;;;5.03;4.53;;;4.60;99.90;;;;;;495567;239;27967;-71
2022/03/21 05:43:38;;;;;;;5.72;4.68;;;4.60;99.90;;;;;;497192;239;27532;-71
2022/03/21 05:45:39;;;;;;;5.45;4.55;;;4.60;99.90;;;;;;497179;239;27491;-71
2022/03/21 05:50:03;;;;;;;5.80;4.35;;;4.40;99.90;;;;;;497478;238;27479;-72
2022/03/21 05:52:04;;;;;;;5.65;4.43;;;4.30;99.90;;;;;;499216;238;27415;-72
2022/03/21 05:54:15;;;;;;;6.40;4.82;;;4.40;99.90;;;;;;499265;238;27443;-72
2022/03/21 05:56:16;;;;;;;7.85;4.60;;;4.40;99.90;;;;;;499245;238;27344;-71
2022/03/21 05:58:17;;;;;;;7.15;5.20;;;4.40;99.90;;;;;;499240;234;27376;-71
2022/03/21 06:00:21;;;;;;;7.90;5.20;;;4.40;99.90;;;;;;499214;238;27843;-72
2022/03/21 06:02:22;;;;;;;4.47;4.07;;;4.50;99.90;;;;;;499225;238;27443;-71
2022/03/21 06:04:24;;;;;;;5.30;4.68;;;4.50;99.90;;;;;;499265;238;27930;-72
2022/03/21 06:06:25;;;;;;;4.97;4.30;;;4.60;99.90;;;;;;499247;238;27868;-71
2022/03/21 06:08:26;;;;;;;5.03;4.03;;;4.60;99.90;;;;;;499237;238;27981;-71
2022/03/21 06:10:29;;;;;;;6.50;5.35;;;4.70;99.90;;;;;;499243;238;27379;-72
2022/03/21 06:12:29;;;;;;;6.72;5.10;;;4.70;99.90;;;;;;499173;238;27384;-71
2022/03/21 06:14:30;;;;;;;5.72;4.87;;;4.80;99.90;;;;;;499221;238;27383;-72
2022/03/21 06:16:31;;;;;;;8.20;5.90;;;4.80;99.90;;;;;;499245;238;27467;-75
2022/03/21 06:18:32;;;;;;;4.85;4.45;;;4.80;99.90;;;;;;499235;238;27696;-73
2022/03/21 06:20:34;;;;;;;5.93;5.12;;;4.70;99.90;;;;;;499286;238;27391;-72
2022/03/21 06:22:35;;;;;;;6.55;5.45;;;4.80;99.90;;;;;;499245;234;27881;-71
2022/03/21 06:24:36;;;;;;;6.35;5.22;;;4.80;99.90;;;;;;499270;238;27894;-72
2022/03/21 06:26:37;;;;;;;4.85;4.15;;;4.90;99.90;;;;;;499262;238;27878;-71
2022/03/21 06:28:39;;;;;;;8.05;5.35;;;5.00;99.90;;;;;;499273;238;27553;-71
2022/03/21 06:30:40;;;;;;;8.27;6.35;;;5.10;99.90;;;;;;499240;238;27375;-71
2022/03/21 06:32:41;;;;;;;8.18;6.22;;;5.10;99.90;;;;;;499270;238;27349;-71
2022/03/21 06:34:42;;;;;;;6.43;5.70;;;5.20;99.90;;;;;;499250;238;27838;-73
2022/03/21 06:36:44;;;;;;;7.95;6.70;;;5.30;99.90;;;;;;499263;238;27973;-72
2022/03/21 06:38:45;;;;;;;7.70;6.32;;;5.30;99.90;;;;;;499269;238;27840;-71
2022/03/21 06:40:52;;;;;;;6.95;6.25;;;5.40;99.90;;;;;;499265;238;27383;-71
2022/03/21 06:42:54;;;;;;;8.45;6.80;;;5.50;99.90;;;;;;499274;238;27356;-71
2022/03/21 06:44:55;;;;;;;8.40;6.80;;;5.60;99.90;;;;;;499297;238;27388;-71
2022/03/21 06:46:58;;;;;;;8.85;6.60;;;5.60;99.90;;;;;;499295;238;27855;-73
2022/03/21 06:48:57;;;;;;;9.00;6.45;;;5.50;99.90;;;;;;499203;238;27940;-71
2022/03/21 06:50:59;;;;;;;9.65;6.50;;;5.40;99.90;;;;;;499268;238;27403;-72
2022/03/21 06:53:00;;;;;;;9.55;6.70;;;5.20;99.90;;;;;;499274;238;27364;-72
2022/03/21 06:55:02;;;;;;;8.30;6.85;;;5.10;99.90;;;;;;499315;238;27360;-72
2022/03/21 06:57:03;;;;;;;10.38;6.62;;;5.10;99.90;;;;;;499269;238;27353;-71
2022/03/21 06:59:05;;;;;;;11.10;6.78;;;5.00;99.90;;;;;;499226;238;27856;-73
2022/03/21 07:01:06;;;;;;;8.95;6.53;;;5.10;99.90;;;;;;499248;238;27348;-71
2022/03/21 07:03:15;;;;;;;8.15;6.32;;;5.30;99.90;;;;;;499322;238;27472;-74
2022/03/21 07:05:15;;;;;;;7.75;6.10;;;5.30;99.90;;;;;;499217;238;27379;-71
2022/03/21 07:07:19;;;;;;;8.65;6.65;;;5.40;99.90;;;;;;499317;238;27820;-75
2022/03/21 07:09:21;;;;;;;8.25;6.07;;;5.50;99.90;;;;;;499284;238;27444;-71
2022/03/21 07:11:22;;;;;;;7.85;6.20;;;5.60;99.90;;;;;;499279;238;27935;-71
2022/03/21 07:13:23;;;;;;;8.40;6.22;;;5.70;99.90;;;;;;499294;238;27937;-72
2022/03/21 07:15:24;;;;;;;8.07;5.95;;;5.80;99.90;;;;;;499388;238;27443;-74
2022/03/21 07:17:25;;;;;;;7.50;6.35;;;5.90;99.90;;;;;;499265;238;27383;-72
2022/03/21 07:19:27;;;;;;;8.30;6.10;;;6.00;99.90;;;;;;499269;238;27958;-71
2022/03/21 07:21:28;;;;;;;7.72;5.70;;;6.00;99.90;;;;;;499276;238;27888;-71
2022/03/21 07:23:29;;;;;;;7.65;5.90;;;6.10;99.90;;;;;;499272;238;27381;-71
2022/03/21 07:25:31;;;;;;;7.20;5.97;;;6.20;99.90;;;;;;499263;238;27364;-71
2022/03/21 07:27:32;;;;;;;7.40;5.90;;;6.40;99.90;;;;;;499269;238;27463;-72
2022/03/21 07:29:33;;;;;;;6.37;5.70;;;6.50;99.90;;;;;;499287;238;27949;-73
2022/03/21 07:31:37;;;;;;;8.77;6.78;;;6.80;99.90;;;;;;499276;238;29135;-74
2022/03/21 07:33:39;;;;;;;9.20;6.53;;;6.90;99.90;;;;;;499288;238;27474;-71
2022/03/21 07:35:41;;;;;;;6.80;6.10;;;7.10;99.90;;;;;;499271;238;27699;-72
2022/03/21 07:37:41;;;;;;;7.20;5.90;;;7.20;99.90;;;;;;499279;238;27842;-74
2022/03/21 07:39:45;;;;;;;6.90;6.10;;;7.40;99.90;;;;;;499340;238;28678;-74
2022/03/21 07:41:44;;;;;;;6.63;5.70;;;7.50;99.90;;;;;;499232;238;28513;-74
2022/03/21 07:43:45;;;;;;;7.70;6.40;;;7.60;99.90;;;;;;499283;238;28379;-74
2022/03/21 07:48:05;;;;;;;6.23;5.63;;;8.40;99.90;;;;;;499236;238;27860;-72
2022/03/21 07:50:08;;;;;;;7.77;5.97;;;8.60;99.90;;;;;;499266;238;28330;-72
2022/03/21 07:52:09;;;;;;;7.70;5.90;;;8.70;99.90;;;;;;499274;238;27971;-72
2022/03/21 07:54:10;;;;;;;6.73;6.03;;;8.70;99.90;;;;;;499242;238;27905;-74
2022/03/21 07:56:11;;;;;;;7.27;6.50;;;8.70;99.90;;;;;;499257;238;27583;-74
2022/03/21 07:58:13;;;;;;;9.43;6.40;;;8.80;99.90;;;;;;499258;238;28006;-74
2022/03/21 08:00:15;;;;;;;7.63;5.83;;;8.80;99.90;;;;;;499246;238;28327;-75
2022/03/21 08:02:15;;;;;;;7.00;5.87;;;8.80;99.90;;;;;;499251;238;28025;-74
2022/03/21 08:04:17;;;;;;;5.77;5.23;;;8.90;99.90;;;;;;499264;238;28328;-75
2022/03/21 08:06:18;;;;;;;7.70;5.43;;;9.00;99.90;;;;;;499264;238;28050;-74
2022/03/21 08:08:24;;;;;;;6.77;5.90;;;9.10;99.90;;;;;;499293;238;27499;-74
2022/03/21 08:10:25;;;;;;;6.47;5.87;;;9.10;99.90;;;;;;499303;238;27596;-71
2022/03/21 08:12:27;;;;;;;7.00;5.80;;;9.10;99.90;;;;;;499274;238;27505;-74
2022/03/21 08:14:28;;;;;;;6.20;5.60;;;9.10;99.90;;;;;;499259;238;27891;-74
2022/03/21 08:16:29;;;;;;;6.47;5.87;;;9.20;99.90;;;;;;499289;238;28396;-74
2022/03/21 08:18:30;;;;;;;10.53;6.00;;;9.30;99.90;;;;;;499314;238;28403;-74
2022/03/21 08:20:35;;;;;;;7.30;6.57;;;9.30;99.90;;;;;;499311;238;28295;-74
2022/03/21 08:22:37;;;;;;;7.50;6.23;;;9.50;99.90;;;;;;499292;238;27927;-71
2022/03/21 08:24:37;;;;;;;6.23;5.63;;;9.50;99.90;;;;;;499247;238;27833;-75
2022/03/21 08:26:39;;;;;;;7.00;5.80;;;9.50;99.90;;;;;;499308;238;27871;-73
2022/03/21 08:28:40;;;;;;;7.60;6.40;;;9.60;99.90;;;;;;499283;238;28353;-74
2022/03/21 08:30:42;;;;;;;7.63;6.93;;;9.60;99.90;;;;;;499288;238;28344;-74
2022/03/21 08:32:43;;;;;;;7.40;6.60;;;9.70;99.90;;;;;;499293;238;27816;-72
2022/03/21 08:34:45;;;;;;;8.83;6.37;;;9.70;99.90;;;;;;499319;238;27738;-74
2022/03/21 08:36:46;;;;;;;9.83;7.07;;;9.70;99.90;;;;;;499333;238;27674;-75
2022/03/21 08:38:47;;;;;;;9.13;7.47;;;9.90;99.90;;;;;;499276;238;28287;-74
2022/03/21 08:40:48;;;;;;;6.90;6.20;;;9.80;99.90;;;;;;499266;238;28392;-74
2022/03/21 08:42:50;;;;;;;9.10;7.10;;;9.90;99.90;;;;;;499292;238;28436;-74
2022/03/21 08:44:51;;;;;;;8.40;6.63;;;10.00;99.90;;;;;;499340;238;27701;-77
2022/03/21 08:46:52;;;;;;;7.73;6.93;;;10.00;99.90;;;;;;499323;238;27822;-74
2022/03/21 08:51:13;;;;;;;6.83;6.10;;;10.00;99.90;;;;;;499346;238;28351;-74
2022/03/21 08:53:14;;;;;;;6.90;6.20;;;10.00;99.90;;;;;;499295;238;28440;-74
2022/03/21 08:55:16;;;;;;;7.13;6.43;;;10.10;99.90;;;;;;499309;238;27634;-75
2022/03/21 08:57:26;;;;;;;7.20;6.60;;;10.20;99.90;;;;;;499273;234;27706;-74
2022/03/21 08:59:27;;;;;;;8.77;6.87;;;10.20;99.90;;;;;;499297;238;27900;-72
2022/03/21 09:01:28;;;;;;;8.43;7.10;;;10.20;99.90;;;;;;499222;238;27934;-74
2022/03/21 09:05:43;;;;;;;7.70;6.83;;;10.40;99.90;;;;;;499295;238;28272;-72
2022/03/21 09:09:52;;;;;;;8.30;6.37;;;10.50;99.90;;;;;;499268;238;27866;-72
2022/03/21 09:11:53;;;;;;;7.67;6.23;;;10.50;99.90;;;;;;499211;238;27880;-74
2022/03/21 09:13:54;;;;;;;8.73;6.70;;;10.40;99.90;;;;;;499219;238;28440;-75
2022/03/21 09:15:56;;;;;;;8.50;6.70;;;10.40;99.90;;;;;;499245;238;28294;-74
2022/03/21 09:17:57;;;;;;;6.60;6.00;;;10.40;99.90;;;;;;499259;238;27826;-74
2022/03/21 09:22:08;;;;;;;6.70;6.00;;;10.70;99.90;;;;;;499278;238;27917;-72
2022/03/21 09:24:10;;;;;;;7.53;6.00;;;10.70;99.90;;;;;;499256;238;27926;-75
2022/03/21 09:26:11;;;;;;;7.63;6.30;;;10.80;99.90;;;;;;499252;238;28384;-73
2022/03/21 09:28:12;;;;;;;8.70;5.87;;;10.90;99.90;;;;;;499279;238;28461;-75
2022/03/21 09:30:19;;;;;;;6.73;6.00;;;10.90;99.90;;;;;;499242;238;28344;-75
2022/03/21 09:32:21;;;;;;;7.67;6.40;;;10.90;99.90;;;;;;499215;238;27930;-76
2022/03/21 09:34:22;;;;;;;7.27;6.10;;;10.90;99.90;;;;;;499250;238;27790;-74
2022/03/21 09:36:23;;;;;;;7.43;6.30;;;10.90;99.90;;;;;;499245;238;27747;-74
2022/03/21 09:38:24;;;;;;;8.33;5.50;;;11.10;99.90;;;;;;499283;238;28010;-74
2022/03/21 09:40:26;;;;;;;6.10;5.40;;;11.10;99.90;;;;;;499257;238;27883;-74
2022/03/21 09:42:27;;;;;;;7.53;6.10;;;11.10;99.90;;;;;;499246;238;27998;-74
2022/03/21 09:44:28;;;;;;;6.43;5.53;;;11.10;99.90;;;;;;499251;238;28074;-74
2022/03/21 09:46:30;;;;;;;6.60;5.63;;;11.20;99.90;;;;;;499267;238;28061;-74
2022/03/21 09:48:32;;;;;;;6.07;5.47;;;11.10;99.90;;;;;;499294;238;28156;-75
2022/03/21 09:50:36;;;;;;;6.40;5.40;;;11.00;99.90;;;;;;499257;238;28096;-75
2022/03/21 09:52:34;;;;;;;10.13;6.10;;;11.10;99.90;;;;;;499077;238;28378;-74
2022/03/21 09:54:35;;;;;;;6.53;5.60;;;11.30;99.90;;;;;;499216;238;28529;-75
2022/03/21 09:56:37;;;;;;;7.20;5.87;;;11.30;99.90;;;;;;499246;238;28884;-74
2022/03/21 09:58:47;;;;;;;9.10;6.03;;;11.30;99.90;;;;;;499280;238;28036;-74
2022/03/21 10:00:52;;;;;;;7.23;5.73;;;11.40;99.90;;;;;;499269;238;28029;-74
2022/03/21 10:02:53;;;;;;;6.80;5.80;;;11.40;99.90;;;;;;499151;238;28568;-74
2022/03/21 10:04:54;;;;;;;7.87;5.90;;;11.40;99.90;;;;;;499241;238;28593;-75
2022/03/21 10:07:02;;;;;;;6.90;5.60;;;11.40;99.90;;;;;;499259;238;28189;-75
2022/03/21 10:09:03;;;;;;;6.87;5.83;;;11.40;99.90;;;;;;499292;238;27937;-75
2022/03/21 10:11:05;;;;;;;7.17;5.50;;;11.50;99.90;;;;;;499297;238;28178;-74
2022/03/21 10:13:09;;;;;;;5.80;5.20;;;11.50;99.90;;;;;;499245;238;28442;-74
2022/03/21 10:15:09;;;;;;;6.17;5.27;;;11.40;99.90;;;;;;499059;238;29018;-75
2022/03/21 10:17:10;;;;;;;9.40;5.87;;;11.40;99.90;;;;;;499284;238;28259;-75
2022/03/21 10:19:11;;;;;;;7.80;6.17;;;11.50;99.90;;;;;;499306;238;28075;-74
2022/03/21 10:21:22;;;;;;;7.27;5.67;;;11.60;99.90;;;;;;499274;238;28814;-74
2022/03/21 10:23:23;;;;;;;8.20;5.63;;;11.80;99.90;;;;;;499305;238;28188;-72
2022/03/21 10:25:27;;;;;;;6.77;5.10;;;11.70;99.90;;;;;;499243;238;28319;-74
2022/03/21 10:27:26;;;;;;;7.83;5.27;;;11.70;99.90;;;;;;499159;238;28685;-74
2022/03/21 10:29:27;;;;;;;8.07;5.90;;;11.70;99.90;;;;;;499274;238;28833;-75
2022/03/21 10:31:39;;;;;;;6.53;5.53;;;11.90;99.90;;;;;;499266;238;28563;-74
2022/03/21 10:33:40;;;;;;;7.13;5.00;;;11.90;99.90;;;;;;499284;238;28313;-72
2022/03/21 10:35:41;;;;;;;4.90;4.40;;;11.90;99.90;;;;;;499271;238;28169;-74
2022/03/21 10:37:42;;;;;;;5.43;4.80;;;11.80;99.90;;;;;;499236;238;28817;-74
2022/03/21 10:40:00;;;;;;;4.63;4.23;;;11.70;99.90;;;;;;499222;238;28693;-74
2022/03/21 10:42:01;;;;;;;6.13;4.93;;;11.70;99.90;;;;;;499245;238;28106;-72
2022/03/21 10:44:04;;;;;;;5.77;4.80;;;11.90;99.90;;;;;;499239;238;28657;-74
2022/03/21 10:46:06;;;;;;;7.00;5.63;;;12.00;99.90;;;;;;499218;238;28149;-73
2022/03/21 10:50:12;;;;;;;6.47;5.73;;;12.40;99.90;;;;;;499178;238;28265;-74
2022/03/21 10:52:13;;;;;;;6.73;4.70;;;12.40;99.90;;;;;;499229;238;28268;-74
2022/03/21 10:54:16;;;;;;;6.33;5.73;;;12.40;99.90;;;;;;499220;238;28638;-76
2022/03/21 10:56:17;;;;;;;8.33;5.90;;;12.40;99.90;;;;;;499213;238;28300;-75
2022/03/21 10:58:18;;;;;;;6.53;5.57;;;12.20;99.90;;;;;;499229;238;28208;-74
2022/03/21 11:00:23;;;;;;;8.80;5.30;;;12.10;99.90;;;;;;499202;238;28437;-74
2022/03/21 11:02:23;;;;;;;6.73;5.20;;;12.20;99.90;;;;;;499086;238;28436;-74
2022/03/21 11:04:25;;;;;;;8.40;5.37;;;12.40;99.90;;;;;;499200;238;28144;-74
2022/03/21 11:06:34;;;;;;;7.10;5.70;;;12.60;99.90;;;;;;499207;238;28205;-74
2022/03/21 11:08:36;;;;;;;8.60;5.57;;;12.60;99.90;;;;;;499261;238;28076;-73
2022/03/21 11:10:36;;;;;;;8.70;5.57;;;12.60;99.90;;;;;;499213;238;28942;-74
2022/03/21 11:12:37;;;;;;;6.43;5.60;;;12.80;99.90;;;;;;499243;238;28736;-74
2022/03/21 11:14:39;;;;;;;8.30;6.53;;;13.00;99.90;;;;;;499212;238;28614;-74